Rigel I — P3JC7 — position and weather

sailwx.info

Track history (hours):
 
Tides and Currents Weather Stations Pressure Air Temp Water Temp Dewpoint Dewpoint Depression Visibility Wind Speed Wind Dir Waves Ship Positions

Rigel I

Last reported at 2017-Oct-22 01:12 UTC. Time now 2017-Nov-19 08:51 UTC.
Position N 41°13' E 018°07'.
Warning: this ship's position is 28 days out of date.

Length 122 m.

Type: Passenger vessel. MMSI: 210632000.

Date/timePositionNaut miles runAvg speedWind from/ knotsBaromVisibWave heightAir tempDewpointWater temp
2017-Oct-22 01:12N 41°13' E 018°07'415.6
2017-Oct-22 00:57N 41°13' E 018°13'21 0.4
2017-Oct-19 23:18N 41°15' E 018°40'7 0.3
2017-Oct-19 02:44N 41°14' E 018°49'515.1
2017-Oct-19 02:25N 41°14' E 018°43'5714.9
2017-Oct-18 22:36N 41°11' E 017°27'315.4
2017-Oct-18 22:24N 41°11' E 017°23'9 0.5
2017-Oct-18 03:45N 41°12' E 017°35'2317.0
2017-Oct-18 02:23N 41°14' E 018°06'916.9
2017-Oct-18 01:51N 41°14' E 018°18'2517.1
2017-Oct-18 00:24N 41°15' E 018°51'717.4
2017-Oct-18 00:00N 41°15' E 018°60'917.4
2017-Oct-17 23:28N 41°16' E 019°12'1017.1
2017-Oct-17 22:53N 41°16' E 019°26'3 1.6
2017-Oct-17 21:08N 41°19' E 019°27'0 0.0
2017-Oct-17 21:00N 41°19' E 019°27'  
Track history (hours):
 
Tides and Currents Weather Stations Pressure Air Temp Water Temp Dewpoint Dewpoint Depression Visibility Wind Speed Wind Dir Waves Ship Positions

Rigel I

Last reported at 2017-Oct-22 01:12 UTC. Time now 2017-Nov-19 08:51 UTC.
Position N 41°13' E 018°07'.
Warning: this ship's position is 28 days out of date.

Length 122 m.

Type: Passenger vessel. MMSI: 210632000.

Date/timePositionNaut miles runAvg speedWind from/ knotsBaromVisibWave heightAir tempDewpointWater temp
2017-Oct-22 01:12N 41°13' E 018°07'415.6
2017-Oct-22 00:57N 41°13' E 018°13'21 0.4
2017-Oct-19 23:18N 41°15' E 018°40'7 0.3
2017-Oct-19 02:44N 41°14' E 018°49'515.1
2017-Oct-19 02:25N 41°14' E 018°43'5714.9
2017-Oct-18 22:36N 41°11' E 017°27'315.4
2017-Oct-18 22:24N 41°11' E 017°23'9 0.5
2017-Oct-18 03:45N 41°12' E 017°35'2317.0
2017-Oct-18 02:23N 41°14' E 018°06'916.9
2017-Oct-18 01:51N 41°14' E 018°18'2517.1
2017-Oct-18 00:24N 41°15' E 018°51'717.4
2017-Oct-18 00:00N 41°15' E 018°60'917.4
2017-Oct-17 23:28N 41°16' E 019°12'1017.1
2017-Oct-17 22:53N 41°16' E 019°26'3 1.6
2017-Oct-17 21:08N 41°19' E 019°27'0 0.0
2017-Oct-17 21:00N 41°19' E 019°27'  

Dump ship's entire track history